.
WxDataArchive / Data Records for 2016-03-12
2016-03-11 March 2016 2016-03-13

Data Records for Saturday, 12 March 2016

Time	Temp	Chill	HIndex	Humid	Dewpt	 Wind 	HiWind	WindDir	Rain 	Barom
-----	----	-----	------	-----	-----	------	------	-------	-----	-----
00:00	37.8	37.8	37.8	92	35.7	0	0	---	0.00	30.310 
00:05	37.6	37.6	37.6	92	35.5	0	1	90	0.00	30.310 
00:10	37.5	37.5	37.5	92	35.4	0	0	---	0.00	30.310 
00:15	37.3	37.3	37.3	92	35.2	0	1	90	0.00	30.306 
00:20	37.2	37.2	37.2	92	35.1	0	0	---	0.00	30.306 
00:25	37.0	37.0	37.0	92	34.9	0	0	---	0.00	30.306 
00:30	36.8	36.8	36.8	92	34.7	0	0	---	0.00	30.300 
00:35	36.8	36.8	36.8	92	34.7	0	0	---	0.00	30.300 
00:40	36.6	36.6	36.6	92	34.5	0	0	---	0.00	30.300 
00:45	36.5	36.5	36.5	92	34.4	0	0	---	0.00	30.294 
00:50	36.2	36.2	36.2	92	34.1	0	0	---	0.00	30.294 
00:55	36.0	36.0	36.0	92	33.9	0	0	---	0.00	30.294 
01:00	35.9	35.9	35.9	92	33.8	0	1	90	0.00	30.287 
01:05	35.9	35.9	35.9	92	33.8	0	0	---	0.00	30.287 
01:10	35.9	35.9	35.9	92	33.8	0	0	---	0.00	30.287 
01:15	35.8	35.8	35.8	93	34.0	0	1	90	0.00	30.274 
01:20	35.9	35.9	35.9	93	34.1	0	0	---	0.00	30.274 
01:25	35.9	35.9	35.9	93	34.1	0	0	---	0.00	30.274 
01:30	35.9	35.9	35.9	93	34.1	0	1	90	0.00	30.265 
01:35	35.9	35.9	35.9	93	34.1	0	0	---	0.00	30.265 
01:40	35.8	35.8	35.8	93	34.0	0	0	---	0.00	30.265 
01:45	35.6	35.6	35.6	93	33.8	0	0	---	0.00	30.268 
01:50	35.5	35.5	35.5	93	33.7	0	0	---	0.00	30.268 
01:55	35.5	35.5	35.5	93	33.7	0	0	---	0.00	30.268 
02:00	35.2	35.2	35.2	93	33.4	0	0	---	0.00	30.257 
02:05	34.9	34.9	34.9	93	33.1	0	0	---	0.00	30.257 
02:10	34.7	34.7	34.7	93	32.9	0	0	---	0.00	30.257 
02:15	34.7	34.7	34.7	93	32.9	0	0	---	0.00	30.242 
02:20	34.9	34.9	34.9	93	33.1	0	0	---	0.00	30.242 
02:25	34.9	34.9	34.9	93	33.1	0	0	---	0.00	30.242 
02:30	34.6	34.6	34.6	93	32.8	0	0	---	0.00	30.236 
02:35	34.4	34.4	34.4	93	32.6	0	0	---	0.00	30.236 
02:40	34.1	34.1	34.1	93	32.3	0	0	---	0.00	30.236 
02:45	34.0	34.0	34.0	93	32.2	0	0	---	0.00	30.232 
02:50	33.8	33.8	33.8	93	32.0	0	0	---	0.00	30.232 
02:55	33.7	33.7	33.7	93	31.9	0	0	---	0.00	30.232 
03:00	33.5	33.5	33.5	93	31.7	0	0	---	0.00	30.227 
03:05	33.5	33.5	33.5	93	31.7	0	0	---	0.00	30.227 
03:10	33.5	33.5	33.5	93	31.7	0	0	---	0.00	30.227 
03:15	33.5	33.5	33.5	94	32.0	0	0	---	0.00	30.214 
03:20	33.7	33.7	33.7	94	32.2	0	0	---	0.00	30.214 
03:25	33.7	33.7	33.7	94	32.2	0	0	---	0.00	30.214 
03:30	33.8	33.8	33.8	94	32.3	0	0	---	0.00	30.211 
03:35	33.8	33.8	33.8	94	32.3	0	0	---	0.00	30.211 
03:40	33.8	33.8	33.8	94	32.3	0	0	---	0.00	30.211 
03:45	34.0	34.0	34.0	94	32.5	0	0	---	0.00	30.207 
03:50	33.8	33.8	33.8	94	32.3	0	0	---	0.00	30.207 
03:55	33.7	33.7	33.7	94	32.2	0	0	---	0.00	30.207 
04:00	33.5	33.5	33.5	94	32.0	0	0	---	0.00	30.207 
04:05	33.2	33.2	33.2	94	31.7	0	0	---	0.00	30.207 
04:10	33.1	33.1	33.1	94	31.6	0	0	---	0.00	30.207 
04:15	32.9	32.9	32.9	94	31.4	0	0	---	0.00	30.214 
04:20	32.8	32.8	32.8	94	31.3	0	0	---	0.00	30.214 
04:25	32.8	32.8	32.8	94	31.3	0	0	---	0.00	30.214 
04:30	32.9	32.9	32.9	94	31.4	0	0	---	0.00	30.202 
04:35	32.9	32.9	32.9	94	31.4	0	0	---	0.00	30.202 
04:40	33.1	33.1	33.1	94	31.6	0	0	---	0.00	30.202 
04:45	33.1	33.1	33.1	94	31.6	0	1	90	0.00	30.196 
04:50	32.9	32.9	32.9	94	31.4	0	1	90	0.00	30.196 
04:55	32.9	32.9	32.9	94	31.4	0	0	---	0.00	30.196 
05:00	32.8	32.8	32.8	94	31.3	0	2	90	0.00	30.192 
05:05	32.8	32.8	32.8	94	31.3	0	0	---	0.00	30.192 
05:10	32.7	32.7	32.7	94	31.2	0	0	---	0.00	30.192 
05:15	32.7	32.7	32.7	94	31.2	0	1	90	0.00	30.188 
05:20	32.7	32.7	32.7	95	31.4	0	1	90	0.00	30.188 
05:25	32.5	32.5	32.5	95	31.2	0	1	90	0.00	30.188 
05:30	32.5	32.5	32.5	95	31.2	0	0	---	0.00	30.186 
05:35	32.5	32.5	32.5	95	31.2	0	1	90	0.00	30.186 
05:40	32.5	32.5	32.5	95	31.2	0	1	90	0.00	30.186 
05:45	32.7	32.7	32.7	95	31.4	0	0	---	0.00	30.185 
05:50	32.7	32.7	32.7	95	31.4	0	0	---	0.00	30.185 
05:55	32.7	32.7	32.7	95	31.4	0	0	---	0.00	30.185 
06:00	32.8	32.8	32.8	95	31.5	0	0	---	0.00	30.182 
06:05	32.8	32.8	32.8	95	31.5	0	0	---	0.00	30.182 
06:10	32.7	32.7	32.7	95	31.4	0	0	---	0.00	30.182 
06:15	32.7	32.7	32.7	95	31.4	0	0	---	0.00	30.183 
06:20	32.7	32.7	32.7	95	31.4	0	0	---	0.00	30.183 
06:25	32.5	32.5	32.5	95	31.2	0	0	---	0.00	30.183 
06:30	32.5	32.5	32.5	95	31.2	0	0	---	0.00	30.179 
06:35	32.5	32.5	32.5	95	31.2	0	0	---	0.00	30.179 
06:40	32.5	32.5	32.5	95	31.2	0	0	---	0.00	30.179 
06:45	32.4	32.4	32.4	95	31.1	0	0	---	0.00	30.177 
06:50	32.4	32.4	32.4	95	31.1	0	0	---	0.00	30.177 
06:55	32.4	32.4	32.4	95	31.1	0	0	---	0.00	30.177 
07:00	32.4	32.4	32.4	95	31.1	0	0	---	0.00	30.178 
07:05	32.2	32.2	32.2	95	30.9	0	0	---	0.00	30.178 
07:10	32.2	32.2	32.2	95	30.9	0	0	---	0.00	30.178 
07:15	32.2	32.2	32.2	95	30.9	0	0	---	0.00	30.184 
07:20	32.2	32.2	32.2	95	30.9	0	0	---	0.00	30.184 
07:25	32.4	32.4	32.4	95	31.1	0	0	---	0.00	30.184 
07:30	32.7	32.7	32.7	95	31.4	0	0	---	0.00	30.184 
07:35	32.9	32.9	32.9	95	31.6	0	0	---	0.00	30.184 
07:40	33.4	33.4	33.4	96	32.4	0	0	---	0.00	30.184 
07:45	34.1	34.1	34.1	96	33.1	0	0	---	0.00	30.188 
07:50	34.9	34.9	34.9	96	33.9	0	0	---	0.00	30.188 
07:55	35.5	35.5	35.5	96	34.5	0	0	---	0.00	30.188 
08:00	35.6	35.6	35.6	96	34.6	0	1	90	0.00	30.184 
08:05	35.5	35.5	35.5	96	34.5	0	2	90	0.00	30.184 
08:10	35.5	35.5	35.5	96	34.5	0	0	---	0.00	30.184 
08:15	35.6	35.6	35.6	96	34.6	0	2	90	0.00	30.192 
08:20	35.8	35.8	35.8	96	34.8	0	0	---	0.00	30.192 
08:25	35.9	35.9	35.9	96	34.9	0	0	---	0.00	30.192 
08:30	36.0	36.0	36.0	96	35.0	0	0	---	0.00	30.197 
08:35	36.2	36.2	36.2	96	35.2	0	1	90	0.00	30.197 
08:40	36.3	36.3	36.3	96	35.3	0	2	90	0.00	30.197 
08:45	36.5	36.5	36.5	96	35.5	0	2	90	0.00	30.200 
08:50	36.6	36.6	36.6	96	35.6	1	3	90	0.00	30.200 
08:55	37.0	37.0	37.0	96	36.0	0	1	90	0.00	30.200 
09:00	37.6	37.6	37.6	96	36.6	1	2	90	0.00	30.198 
09:05	38.0	38.0	38.0	96	37.0	1	3	90	0.00	30.198 
09:10	38.5	38.5	38.5	96	37.5	1	3	90	0.00	30.198 
09:15	38.8	38.8	38.8	95	37.5	0	2	90	0.00	30.212 
09:20	38.9	38.9	38.9	95	37.6	1	3	90	0.00	30.212 
09:25	39.1	39.1	39.1	95	37.8	0	2	90	0.00	30.212 
09:30	39.5	39.5	39.5	95	38.2	0	2	90	0.00	30.210 
09:35	40.2	40.2	40.2	95	38.9	1	3	90	0.00	30.210 
09:40	40.9	40.9	40.9	94	39.3	0	1	90	0.00	30.210 
09:45	41.6	41.6	41.6	94	40.0	1	3	90	0.00	30.213 
09:50	42.3	42.3	42.3	93	40.4	0	1	90	0.00	30.213 
09:55	43.1	43.1	43.1	92	40.9	0	1	90	0.00	30.213 
10:00	43.6	43.6	43.6	92	41.4	0	2	90	0.00	30.209 
10:05	44.2	44.2	44.2	91	41.7	0	2	90	0.00	30.209 
10:10	45.1	45.1	45.1	89	42.1	0	2	292	0.00	30.209 
10:15	45.8	45.8	45.8	87	42.2	1	4	292	0.00	30.205 
10:20	46.1	46.1	46.1	85	41.8	1	4	68	0.00	30.205 
10:25	46.2	46.2	46.2	83	41.3	1	4	68	0.00	30.205 
10:30	46.5	46.5	46.5	82	41.3	1	4	68	0.00	30.190 
10:35	46.8	46.8	46.8	82	41.6	1	4	68	0.00	30.190 
10:40	47.4	47.4	47.4	81	41.9	1	3	68	0.00	30.190 
10:45	48.0	48.0	48.0	80	42.1	0	1	68	0.00	30.180 
10:50	49.1	49.1	49.1	78	42.5	1	3	68	0.00	30.180 
10:55	49.6	49.6	49.6	77	42.7	1	3	68	0.00	30.180 
11:00	50.1	50.1	50.1	77	43.2	0	2	68	0.00	30.182 
11:05	50.7	50.7	50.7	75	43.1	0	2	68	0.00	30.182 
11:10	51.1	51.1	51.1	74	43.1	0	3	68	0.00	30.182 
11:15	51.1	51.1	51.1	73	42.7	0	0	---	0.00	30.172 
11:20	51.4	51.4	51.4	73	43.0	0	2	68	0.00	30.172 
11:25	51.6	51.6	51.6	72	42.9	0	2	68	0.00	30.172 
11:30	51.7	51.7	51.7	72	43.0	0	2	68	0.00	30.159 
11:35	52.0	52.0	52.0	71	42.9	1	3	68	0.00	30.159 
11:40	52.6	52.6	52.6	71	43.5	1	3	68	0.00	30.159 
11:45	53.1	53.1	53.1	70	43.6	2	5	68	0.00	30.142 
11:50	53.5	53.5	53.5	70	44.0	1	4	68	0.00	30.142 
11:55	53.9	53.9	53.9	69	44.0	2	4	68	0.00	30.142 
12:00	54.4	54.4	54.4	68	44.1	0	2	68	0.00	30.138 
12:05	54.8	54.8	54.8	69	44.8	0	1	68	0.00	30.138 
12:10	54.8	54.8	54.8	67	44.1	1	2	68	0.00	30.138 
12:15	54.8	54.8	54.8	67	44.1	0	3	68	0.00	30.141 
12:20	54.8	54.8	54.8	68	44.4	0	2	68	0.00	30.141 
12:25	55.1	55.1	55.1	67	44.3	0	3	68	0.00	30.141 
12:30	55.4	55.4	55.4	68	45.0	0	3	68	0.00	30.130 
12:35	55.7	55.7	55.7	68	45.3	1	3	68	0.00	30.130 
12:40	55.9	55.9	55.9	67	45.1	1	3	68	0.00	30.130 
12:45	56.2	56.2	56.2	65	44.6	1	4	68	0.00	30.123 
12:50	56.2	56.2	56.2	65	44.6	2	4	68	0.00	30.123 
12:55	56.3	56.3	56.3	65	44.7	1	3	68	0.00	30.123 
13:00	56.5	56.5	56.5	64	44.5	1	4	68	0.00	30.121 
13:05	56.5	56.5	56.5	64	44.5	1	3	68	0.00	30.121 
13:10	56.5	56.5	56.5	64	44.5	1	3	68	0.00	30.121 
13:15	56.5	56.5	56.5	64	44.5	1	4	68	0.00	30.103 
13:20	56.6	56.6	56.6	64	44.6	0	1	68	0.00	30.103 
13:25	57.2	57.2	57.2	65	45.5	1	3	68	0.00	30.103 
13:30	57.5	57.5	57.5	63	45.0	0	2	68	0.00	30.103 
13:35	57.6	57.6	57.6	62	44.7	0	1	68	0.00	30.103 
13:40	58.1	58.1	58.1	63	45.6	0	1	68	0.00	30.103 
13:45	58.1	58.1	58.1	62	45.1	0	3	68	0.00	30.102 
13:50	58.3	58.3	58.3	62	45.3	0	1	68	0.00	30.102 
13:55	58.3	58.3	58.3	62	45.3	0	1	68	0.00	30.102 
14:00	58.3	58.3	58.3	62	45.3	0	2	68	0.00	30.087 
14:05	58.4	58.4	58.4	61	45.0	1	3	68	0.00	30.087 
14:10	58.3	58.3	58.3	61	44.9	2	5	68	0.00	30.087 
14:15	58.3	58.3	58.3	61	44.9	1	4	68	0.00	30.064 
14:20	58.3	58.3	58.3	62	45.3	1	5	68	0.00	30.064 
14:25	58.1	58.1	58.1	61	44.7	1	3	68	0.00	30.064 
14:30	58.1	58.1	58.1	63	45.6	1	3	68	0.00	30.062 
14:35	58.3	58.3	58.3	64	46.2	1	4	68	0.00	30.062 
14:40	58.6	58.6	58.6	61	45.2	1	3	68	0.00	30.062 
14:45	58.9	58.9	58.9	60	45.0	1	3	68	0.00	30.055 
14:50	58.9	58.9	58.9	60	45.0	1	4	45	0.00	30.055 
14:55	58.9	58.9	58.9	60	45.0	1	3	90	0.00	30.055 
15:00	59.0	59.0	59.0	60	45.1	2	6	90	0.00	30.053 
15:05	59.0	59.0	59.0	60	45.1	1	5	90	0.00	30.053 
15:10	59.2	59.2	59.2	59	44.9	2	5	112	0.00	30.053 
15:15	59.2	59.2	59.2	60	45.3	0	3	112	0.00	30.042 
15:20	59.3	59.3	59.3	59	45.0	2	6	90	0.00	30.042 
15:25	59.0	59.0	59.0	59	44.7	2	4	90	0.00	30.042 
15:30	59.0	59.0	59.0	59	44.7	0	2	90	0.00	30.041 
15:35	59.0	59.0	59.0	59	44.7	1	4	90	0.00	30.041 
15:40	59.0	59.0	59.0	58	44.2	1	4	90	0.00	30.041 
15:45	59.0	59.0	59.0	58	44.2	1	3	90	0.00	30.041 
15:50	58.9	58.9	58.9	58	44.1	1	3	90	0.00	30.041 
15:55	59.0	59.0	59.0	58	44.2	0	3	90	0.00	30.041 
16:00	59.0	59.0	59.0	58	44.2	2	4	90	0.00	30.037 
16:05	59.2	59.2	59.2	59	44.9	0	3	90	0.00	30.037 
16:10	59.3	59.3	59.3	59	45.0	1	4	90	0.00	30.037 
16:15	59.2	59.2	59.2	59	44.9	2	5	90	0.00	30.038 
16:20	59.0	59.0	59.0	58	44.2	1	4	90	0.00	30.038 
16:25	59.0	59.0	59.0	60	45.1	1	3	90	0.00	30.038 
16:30	59.0	59.0	59.0	59	44.7	2	5	90	0.00	30.035 
16:35	58.9	58.9	58.9	58	44.1	1	5	90	0.00	30.035 
16:40	58.9	58.9	58.9	58	44.1	0	2	90	0.00	30.035 
16:45	58.7	58.7	58.7	58	44.0	1	3	90	0.00	30.039 
16:50	58.6	58.6	58.6	59	44.3	1	4	90	0.00	30.039 
16:55	58.4	58.4	58.4	60	44.6	1	3	90	0.00	30.039 
17:00	58.3	58.3	58.3	59	44.0	1	3	90	0.00	30.042 
17:05	58.3	58.3	58.3	61	44.9	0	1	90	0.00	30.042 
17:10	58.3	58.3	58.3	61	44.9	0	3	90	0.00	30.042 
17:15	58.3	58.3	58.3	60	44.5	0	2	90	0.00	30.038 
17:20	58.3	58.3	58.3	61	44.9	0	2	90	0.00	30.038 
17:25	58.3	58.3	58.3	64	46.2	0	2	90	0.00	30.038 
17:30	58.1	58.1	58.1	65	46.4	0	2	90	0.00	30.032 
17:35	58.0	58.0	58.0	65	46.3	0	1	90	0.00	30.032 
17:40	58.0	58.0	58.0	66	46.7	0	2	90	0.00	30.032 
17:45	57.8	57.8	57.8	66	46.5	0	2	90	0.00	30.031 
17:50	57.6	57.6	57.6	67	46.7	0	1	90	0.00	30.031 
17:55	57.5	57.5	57.5	68	47.0	0	3	90	0.00	30.031 
18:00	57.2	57.2	57.2	69	47.1	0	2	90	0.00	30.031 
18:05	57.0	57.0	57.0	69	46.9	1	2	90	0.00	30.031 
18:10	56.9	56.9	56.9	70	47.2	0	2	90	0.00	30.031 
18:15	56.7	56.7	56.7	72	47.8	0	1	90	0.00	30.041 
18:20	56.5	56.5	56.5	73	47.9	0	3	90	0.00	30.041 
18:25	56.3	56.3	56.3	73	47.8	0	2	90	0.00	30.041 
18:30	56.2	56.2	56.2	74	48.0	0	0	---	0.00	30.047 
18:35	56.0	56.0	56.0	77	48.9	0	1	90	0.00	30.047 
18:40	55.7	55.7	55.7	78	48.9	0	0	---	0.01	30.047 
18:45	55.4	55.4	55.4	80	49.3	0	1	90	0.00	30.051 
18:50	55.1	55.1	55.1	81	49.4	0	1	90	0.00	30.051 
18:55	54.8	54.8	54.8	81	49.1	0	2	90	0.00	30.051 
19:00	54.5	54.5	54.5	82	49.1	0	1	90	0.00	30.054 
19:05	54.4	54.4	54.4	82	49.0	0	0	---	0.00	30.054 
19:10	54.2	54.2	54.2	83	49.1	0	0	---	0.00	30.054 
19:15	54.1	54.1	54.1	83	49.1	0	2	90	0.00	30.060 
19:20	53.9	53.9	53.9	83	48.9	0	1	90	0.01	30.060 
19:25	53.8	53.8	53.8	84	49.1	1	2	90	0.00	30.060 
19:30	53.6	53.6	53.6	84	48.9	0	2	90	0.00	30.051 
19:35	53.5	53.5	53.5	84	48.8	0	1	90	0.00	30.051 
19:40	53.3	53.3	53.3	85	48.9	0	0	---	0.00	30.051 
19:45	53.2	53.2	53.2	85	48.8	0	0	---	0.00	30.054 
19:50	53.2	53.2	53.2	85	48.8	0	0	---	0.00	30.054 
19:55	53.1	53.1	53.1	85	48.7	0	0	---	0.01	30.054 
20:00	52.9	52.9	52.9	86	48.8	0	1	90	0.00	30.052 
20:05	52.9	52.9	52.9	87	49.1	0	2	90	0.00	30.052 
20:10	52.8	52.8	52.8	87	49.0	0	0	---	0.00	30.052 
20:15	52.8	52.8	52.8	87	49.0	0	1	90	0.00	30.045 
20:20	52.6	52.6	52.6	88	49.1	0	1	90	0.00	30.045 
20:25	52.5	52.5	52.5	88	49.0	0	0	---	0.00	30.045 
20:30	52.5	52.5	52.5	88	49.0	0	1	90	0.00	30.041 
20:35	52.3	52.3	52.3	88	48.9	0	0	---	0.00	30.041 
20:40	52.3	52.3	52.3	88	48.9	0	1	90	0.00	30.041 
20:45	52.2	52.2	52.2	87	48.4	0	2	90	0.00	30.032 
20:50	52.2	52.2	52.2	87	48.4	0	2	90	0.00	30.032 
20:55	52.2	52.2	52.2	86	48.1	0	3	90	0.00	30.032 
21:00	52.2	52.2	52.2	85	47.8	0	3	90	0.00	30.030 
21:05	52.3	52.3	52.3	85	47.9	0	2	90	0.01	30.030 
21:10	52.2	52.2	52.2	85	47.8	0	1	90	0.00	30.030 
21:15	52.2	52.2	52.2	85	47.8	1	3	90	0.00	30.021 
21:20	52.0	52.0	52.0	84	47.3	2	5	90	0.00	30.021 
21:25	52.0	52.0	52.0	84	47.3	1	4	90	0.00	30.021 
21:30	52.0	52.0	52.0	84	47.3	1	3	90	0.00	30.014 
21:35	52.0	52.0	52.0	84	47.3	1	3	90	0.00	30.014 
21:40	52.0	52.0	52.0	84	47.3	1	4	90	0.00	30.014 
21:45	51.9	51.9	51.9	83	46.9	1	3	90	0.00	30.009 
21:50	51.9	51.9	51.9	83	46.9	0	1	90	0.00	30.009 
21:55	51.9	51.9	51.9	83	46.9	1	3	90	0.00	30.009 
22:00	51.9	51.9	51.9	83	46.9	0	3	90	0.00	30.008 
22:05	51.9	51.9	51.9	83	46.9	1	4	90	0.00	30.008 
22:10	51.9	51.9	51.9	83	46.9	0	2	90	0.00	30.008 
22:15	51.9	51.9	51.9	83	46.9	0	2	90	0.01	30.001 
22:20	51.7	51.7	51.7	84	47.0	0	0	---	0.00	30.001 
22:25	51.6	51.6	51.6	84	46.9	0	0	---	0.00	30.001 
22:30	51.6	51.6	51.6	84	46.9	0	0	---	0.00	29.998 
22:35	51.6	51.6	51.6	85	47.2	0	1	90	0.00	29.998 
22:40	51.6	51.6	51.6	85	47.2	0	2	90	0.00	29.998 
22:45	51.6	51.6	51.6	85	47.2	0	2	90	0.00	29.991 
22:50	51.6	51.6	51.6	85	47.2	0	2	90	0.00	29.991 
22:55	51.6	51.6	51.6	85	47.2	0	2	90	0.00	29.991 
23:00	51.4	51.4	51.4	85	47.0	0	1	90	0.00	29.989 
23:05	51.4	51.4	51.4	85	47.0	0	1	90	0.00	29.989 
23:10	51.4	51.4	51.4	85	47.0	0	1	90	0.00	29.989 
23:15	51.4	51.4	51.4	84	46.7	1	2	90	0.00	29.981 
23:20	51.4	51.4	51.4	84	46.7	1	2	90	0.00	29.981 
23:25	51.4	51.4	51.4	83	46.4	0	2	90	0.00	29.981 
23:30	51.6	51.6	51.6	82	46.3	0	2	90	0.00	29.976 
23:35	51.4	51.4	51.4	81	45.8	0	3	90	0.00	29.976 
23:40	51.6	51.6	51.6	80	45.6	0	2	90	0.00	29.976 
23:45	51.6	51.6	51.6	80	45.6	0	2	90	0.00	29.976 
23:50	51.6	51.6	51.6	79	45.3	0	2	90	0.00	29.976 
23:55	51.4	51.4	51.4	79	45.1	0	1	90	0.00	29.976 

CoCoRaHS
IN-AL-39
A2 Web Hosting
Creative Commons License
GoDaddy
search engine by freefind advanced

loaded 2018-11-12 20:08:09 • last modified 2010-11-18 10:43:29
Privacy PolicyDisclaimer
• wx.awcolley.com is powered by PmWiki v.2002016 •
• all content (unless otherwise noted) © 2018 A W Colley